sensor_id;sensor_type;location;lat;lon;timestamp;pressure;altitude;pressure_sealevel;temperature;humidity
70589;BME280;58152;49.202;18.744;2022-12-18T00:00:09;98725.44;;;-5.16;66.89
70589;BME280;58152;49.202;18.744;2022-12-18T00:02:34;98715.16;;;-5.17;66.25
70589;BME280;58152;49.202;18.744;2022-12-18T00:05:00;98731.56;;;-5.12;66.76
70589;BME280;58152;49.202;18.744;2022-12-18T00:07:25;98736.84;;;-5.07;66.89
70589;BME280;58152;49.202;18.744;2022-12-18T00:09:51;98736.75;;;-5.09;66.76
70589;BME280;58152;49.202;18.744;2022-12-18T00:12:16;98743.75;;;-5.05;66.94
70589;BME280;58152;49.202;18.744;2022-12-18T00:14:45;98731.78;;;-5.06;67.07
70589;BME280;58152;49.202;18.744;2022-12-18T00:17:11;98740.44;;;-5.02;66.98
70589;BME280;58152;49.202;18.744;2022-12-18T00:19:36;98742.00;;;-5.06;66.93
70589;BME280;58152;49.202;18.744;2022-12-18T00:22:01;98746.31;;;-5.05;67.18
70589;BME280;58152;49.202;18.744;2022-12-18T00:24:27;98732.56;;;-5.08;67.21
70589;BME280;58152;49.202;18.744;2022-12-18T00:26:52;98753.13;;;-5.05;67.13
70589;BME280;58152;49.202;18.744;2022-12-18T00:29:18;98741.00;;;-5.09;67.33
70589;BME280;58152;49.202;18.744;2022-12-18T00:31:43;98748.78;;;-5.08;67.28
70589;BME280;58152;49.202;18.744;2022-12-18T00:34:13;98754.00;;;-5.05;67.28
70589;BME280;58152;49.202;18.744;2022-12-18T00:36:39;98754.84;;;-5.04;67.53
70589;BME280;58152;49.202;18.744;2022-12-18T00:39:06;98756.63;;;-5.03;67.39
70589;BME280;58152;49.202;18.744;2022-12-18T00:41:32;98759.09;;;-5.05;67.93
70589;BME280;58152;49.202;18.744;2022-12-18T00:44:17;98761.66;;;-5.05;67.21
70589;BME280;58152;49.202;18.744;2022-12-18T00:46:43;98770.22;;;-5.04;67.71
70589;BME280;58152;49.202;18.744;2022-12-18T00:49:13;98769.28;;;-5.06;67.56
70589;BME280;58152;49.202;18.744;2022-12-18T00:51:39;98772.91;;;-5.01;67.59
70589;BME280;58152;49.202;18.744;2022-12-18T00:54:05;98766.75;;;-5.06;67.90
70589;BME280;58152;49.202;18.744;2022-12-18T00:56:31;98776.41;;;-4.99;67.49
70589;BME280;58152;49.202;18.744;2022-12-18T00:58:56;98777.19;;;-5.00;67.48
70589;BME280;58152;49.202;18.744;2022-12-18T01:01:22;98771.03;;;-5.05;67.74
70589;BME280;58152;49.202;18.744;2022-12-18T01:03:47;98769.25;;;-5.08;67.53
70589;BME280;58152;49.202;18.744;2022-12-18T01:06:14;98779.59;;;-5.05;68.23
70589;BME280;58152;49.202;18.744;2022-12-18T01:08:40;98787.44;;;-5.00;68.28
70589;BME280;58152;49.202;18.744;2022-12-18T01:11:17;98780.44;;;-5.04;67.41
70589;BME280;58152;49.202;18.744;2022-12-18T01:13:43;98782.97;;;-5.06;67.67
70589;BME280;58152;49.202;18.744;2022-12-18T01:16:12;98792.56;;;-5.00;67.65
70589;BME280;58152;49.202;18.744;2022-12-18T01:18:38;98795.06;;;-5.02;68.20
70589;BME280;58152;49.202;18.744;2022-12-18T01:21:12;98791.59;;;-5.04;68.07
70589;BME280;58152;49.202;18.744;2022-12-18T01:23:38;98789.09;;;-5.02;68.18
70589;BME280;58152;49.202;18.744;2022-12-18T01:26:08;98779.59;;;-5.05;68.20
70589;BME280;58152;49.202;18.744;2022-12-18T01:28:35;98782.78;;;-5.11;67.73
70589;BME280;58152;49.202;18.744;2022-12-18T01:31:21;98784.69;;;-5.05;67.84
70589;BME280;58152;49.202;18.744;2022-12-18T01:33:47;98788.84;;;-5.08;68.36
70589;BME280;58152;49.202;18.744;2022-12-18T01:36:22;98797.28;;;-5.11;67.90
70589;BME280;58152;49.202;18.744;2022-12-18T01:38:48;98792.78;;;-5.17;68.20
70589;BME280;58152;49.202;18.744;2022-12-18T01:41:19;98798.72;;;-5.18;68.07
70589;BME280;58152;49.202;18.744;2022-12-18T01:43:56;98805.78;;;-5.12;67.98
70589;BME280;58152;49.202;18.744;2022-12-18T01:46:24;98806.50;;;-5.15;67.94
70589;BME280;58152;49.202;18.744;2022-12-18T01:48:54;98811.63;;;-5.15;68.83
70589;BME280;58152;49.202;18.744;2022-12-18T01:51:21;98812.41;;;-5.17;67.69
70589;BME280;58152;49.202;18.744;2022-12-18T01:53:47;98797.56;;;-5.26;67.62
70589;BME280;58152;49.202;18.744;2022-12-18T01:56:15;98817.38;;;-5.20;68.06
70589;BME280;58152;49.202;18.744;2022-12-18T01:58:48;98817.25;;;-5.23;67.95
70589;BME280;58152;49.202;18.744;2022-12-18T02:01:15;98809.47;;;-5.26;67.86
70589;BME280;58152;49.202;18.744;2022-12-18T02:03:42;98808.56;;;-5.27;68.08
70589;BME280;58152;49.202;18.744;2022-12-18T02:14:04;98833.28;;;-5.27;68.21
70589;BME280;58152;49.202;18.744;2022-12-18T02:22:24;98827.56;;;-5.43;67.40
70589;BME280;58152;49.202;18.744;2022-12-18T02:27:56;98841.16;;;-5.44;67.98
70589;BME280;58152;49.202;18.744;2022-12-18T02:33:02;98841.91;;;-5.46;67.73
70589;BME280;58152;49.202;18.744;2022-12-18T02:35:30;98844.47;;;-5.46;67.87
70589;BME280;58152;49.202;18.744;2022-12-18T02:37:56;98843.44;;;-5.50;68.06
70589;BME280;58152;49.202;18.744;2022-12-18T02:40:26;98841.72;;;-5.51;67.54
70589;BME280;58152;49.202;18.744;2022-12-18T02:42:52;98846.78;;;-5.52;67.40
70589;BME280;58152;49.202;18.744;2022-12-18T02:45:18;98839.78;;;-5.56;67.54
70589;BME280;58152;49.202;18.744;2022-12-18T02:47:47;98858.69;;;-5.53;67.78
70589;BME280;58152;49.202;18.744;2022-12-18T02:50:24;98867.25;;;-5.52;67.87
70589;BME280;58152;49.202;18.744;2022-12-18T02:53:15;98863.63;;;-5.57;67.42
70589;BME280;58152;49.202;18.744;2022-12-18T03:03:54;98871.72;;;-5.68;67.19
70589;BME280;58152;49.202;18.744;2022-12-18T03:06:25;98867.13;;;-5.75;66.92
70589;BME280;58152;49.202;18.744;2022-12-18T03:08:58;98862.63;;;-5.80;66.46
70589;BME280;58152;49.202;18.744;2022-12-18T03:11:24;98863.50;;;-5.80;66.29
70589;BME280;58152;49.202;18.744;2022-12-18T03:14:11;98856.31;;;-5.89;66.36
70589;BME280;58152;49.202;18.744;2022-12-18T03:16:40;98865.81;;;-5.86;66.14
70589;BME280;58152;49.202;18.744;2022-12-18T03:19:11;98863.13;;;-5.89;66.35
70589;BME280;58152;49.202;18.744;2022-12-18T03:21:42;98865.66;;;-5.89;66.76
70589;BME280;58152;49.202;18.744;2022-12-18T03:24:09;98865.44;;;-5.95;66.13
70589;BME280;58152;49.202;18.744;2022-12-18T03:26:38;98868.53;;;-6.02;65.95
70589;BME280;58152;49.202;18.744;2022-12-18T03:29:25;98876.25;;;-6.01;65.47
70589;BME280;58152;49.202;18.744;2022-12-18T03:32:05;98873.50;;;-6.05;66.31
70589;BME280;58152;49.202;18.744;2022-12-18T03:34:34;98874.06;;;-6.12;66.05
70589;BME280;58152;49.202;18.744;2022-12-18T03:37:01;98878.19;;;-6.15;66.11
70589;BME280;58152;49.202;18.744;2022-12-18T03:39:27;98869.41;;;-6.21;66.11
70589;BME280;58152;49.202;18.744;2022-12-18T03:44:52;98899.25;;;-6.20;64.91
70589;BME280;58152;49.202;18.744;2022-12-18T03:53:39;98922.78;;;-6.27;65.41
70589;BME280;58152;49.202;18.744;2022-12-18T03:56:08;98911.53;;;-6.31;65.04
70589;BME280;58152;49.202;18.744;2022-12-18T03:58:36;98911.59;;;-6.29;66.02
70589;BME280;58152;49.202;18.744;2022-12-18T04:01:05;98902.88;;;-6.34;64.92
70589;BME280;58152;49.202;18.744;2022-12-18T04:03:34;98914.91;;;-6.32;65.43
70589;BME280;58152;49.202;18.744;2022-12-18T04:06:04;98915.47;;;-6.37;65.32
70589;BME280;58152;49.202;18.744;2022-12-18T04:08:31;98905.16;;;-6.41;65.40
70589;BME280;58152;49.202;18.744;2022-12-18T04:10:57;98905.22;;;-6.39;65.08
70589;BME280;58152;49.202;18.744;2022-12-18T04:13:24;98907.56;;;-6.44;65.49
70589;BME280;58152;49.202;18.744;2022-12-18T04:15:50;98920.47;;;-6.41;64.63
70589;BME280;58152;49.202;18.744;2022-12-18T04:18:16;98923.69;;;-6.45;65.39
70589;BME280;58152;49.202;18.744;2022-12-18T04:20:43;98920.16;;;-6.47;64.43
70589;BME280;58152;49.202;18.744;2022-12-18T04:23:08;98914.06;;;-6.50;64.83
70589;BME280;58152;49.202;18.744;2022-12-18T04:25:34;98922.50;;;-6.51;64.87
70589;BME280;58152;49.202;18.744;2022-12-18T04:27:59;98926.63;;;-6.55;64.33
70589;BME280;58152;49.202;18.744;2022-12-18T04:30:24;98921.00;;;-6.66;64.57
70589;BME280;58152;49.202;18.744;2022-12-18T04:32:53;98923.31;;;-6.70;64.20
70589;BME280;58152;49.202;18.744;2022-12-18T04:35:19;98937.72;;;-6.72;64.33
70589;BME280;58152;49.202;18.744;2022-12-18T04:37:44;98935.66;;;-6.79;64.05
70589;BME280;58152;49.202;18.744;2022-12-18T04:40:12;98947.47;;;-6.81;63.24
70589;BME280;58152;49.202;18.744;2022-12-18T04:42:39;98950.75;;;-6.84;63.61
70589;BME280;58152;49.202;18.744;2022-12-18T04:45:06;98942.53;;;-6.96;63.79
70589;BME280;58152;49.202;18.744;2022-12-18T04:47:31;98947.41;;;-7.01;64.12
70589;BME280;58152;49.202;18.744;2022-12-18T04:49:57;98946.38;;;-7.04;63.66
70589;BME280;58152;49.202;18.744;2022-12-18T04:52:22;98957.38;;;-7.05;63.08
70589;BME280;58152;49.202;18.744;2022-12-18T04:54:48;98971.56;;;-7.10;64.32
70589;BME280;58152;49.202;18.744;2022-12-18T04:57:13;98975.94;;;-7.08;64.25
70589;BME280;58152;49.202;18.744;2022-12-18T04:59:39;98980.19;;;-7.08;64.38
70589;BME280;58152;49.202;18.744;2022-12-18T05:02:05;98973.25;;;-7.11;64.61
70589;BME280;58152;49.202;18.744;2022-12-18T05:04:30;98983.22;;;-7.16;63.83
70589;BME280;58152;49.202;18.744;2022-12-18T05:06:56;98982.97;;;-7.20;63.12
70589;BME280;58152;49.202;18.744;2022-12-18T05:09:21;98985.47;;;-7.22;63.37
70589;BME280;58152;49.202;18.744;2022-12-18T05:11:47;98985.31;;;-7.25;62.85
70589;BME280;58152;49.202;18.744;2022-12-18T05:14:12;98986.69;;;-7.31;63.06
70589;BME280;58152;49.202;18.744;2022-12-18T05:16:38;98993.28;;;-7.35;62.70
70589;BME280;58152;49.202;18.744;2022-12-18T05:19:03;98994.81;;;-7.38;63.31
70589;BME280;58152;49.202;18.744;2022-12-18T05:21:29;98999.13;;;-7.37;63.86
70589;BME280;58152;49.202;18.744;2022-12-18T05:23:55;99008.53;;;-7.36;62.94
70589;BME280;58152;49.202;18.744;2022-12-18T05:26:20;99007.56;;;-7.38;63.13
70589;BME280;58152;49.202;18.744;2022-12-18T05:28:46;99012.66;;;-7.38;62.41
70589;BME280;58152;49.202;18.744;2022-12-18T05:31:12;99016.81;;;-7.40;63.12
70589;BME280;58152;49.202;18.744;2022-12-18T05:33:38;99026.22;;;-7.39;63.02
70589;BME280;58152;49.202;18.744;2022-12-18T05:36:05;99024.41;;;-7.42;63.11
70589;BME280;58152;49.202;18.744;2022-12-18T05:38:34;99021.44;;;-7.50;63.18
70589;BME280;58152;49.202;18.744;2022-12-18T05:40:59;99020.41;;;-7.53;63.21
70589;BME280;58152;49.202;18.744;2022-12-18T05:43:26;99011.81;;;-7.55;63.97
70589;BME280;58152;49.202;18.744;2022-12-18T05:45:52;99018.09;;;-7.49;63.58
70589;BME280;58152;49.202;18.744;2022-12-18T05:48:17;99016.09;;;-7.54;63.31
70589;BME280;58152;49.202;18.744;2022-12-18T05:50:45;99018.97;;;-7.64;63.46
70589;BME280;58152;49.202;18.744;2022-12-18T05:53:11;99020.47;;;-7.68;63.23
70589;BME280;58152;49.202;18.744;2022-12-18T05:55:39;99020.56;;;-7.67;62.43
70589;BME280;58152;49.202;18.744;2022-12-18T05:58:06;99026.03;;;-7.75;62.40
70589;BME280;58152;49.202;18.744;2022-12-18T06:00:33;99037.09;;;-7.75;62.29
70589;BME280;58152;49.202;18.744;2022-12-18T06:03:00;99027.22;;;-7.85;62.04
70589;BME280;58152;49.202;18.744;2022-12-18T06:05:26;99027.06;;;-7.88;61.73
70589;BME280;58152;49.202;18.744;2022-12-18T06:07:52;99045.06;;;-7.85;62.35
70589;BME280;58152;49.202;18.744;2022-12-18T06:10:17;99039.53;;;-7.93;62.30
70589;BME280;58152;49.202;18.744;2022-12-18T06:12:43;99036.84;;;-7.96;62.61
70589;BME280;58152;49.202;18.744;2022-12-18T06:15:09;99042.81;;;-7.95;62.56
70589;BME280;58152;49.202;18.744;2022-12-18T06:17:35;99034.84;;;-8.01;62.53
70589;BME280;58152;49.202;18.744;2022-12-18T06:20:01;99038.81;;;-8.06;61.86
70589;BME280;58152;49.202;18.744;2022-12-18T06:22:26;99042.16;;;-8.07;62.22
70589;BME280;58152;49.202;18.744;2022-12-18T06:24:52;99036.81;;;-8.12;61.39
70589;BME280;58152;49.202;18.744;2022-12-18T06:27:18;99045.00;;;-8.18;62.31
70589;BME280;58152;49.202;18.744;2022-12-18T06:29:43;99042.28;;;-8.21;62.55
70589;BME280;58152;49.202;18.744;2022-12-18T06:32:09;99043.94;;;-8.21;62.30
70589;BME280;58152;49.202;18.744;2022-12-18T06:34:37;99055.72;;;-8.23;61.46
70589;BME280;58152;49.202;18.744;2022-12-18T06:37:02;99056.34;;;-8.27;61.79
70589;BME280;58152;49.202;18.744;2022-12-18T06:39:28;99068.47;;;-8.23;62.41
70589;BME280;58152;49.202;18.744;2022-12-18T06:41:53;99064.84;;;-8.27;61.73
70589;BME280;58152;49.202;18.744;2022-12-18T06:44:19;99077.59;;;-8.27;62.15
70589;BME280;58152;49.202;18.744;2022-12-18T06:46:45;99077.34;;;-8.31;61.75
70589;BME280;58152;49.202;18.744;2022-12-18T06:49:10;99084.19;;;-8.30;61.62
70589;BME280;58152;49.202;18.744;2022-12-18T06:51:36;99080.47;;;-8.37;61.24
70589;BME280;58152;49.202;18.744;2022-12-18T06:54:02;99092.34;;;-8.36;61.48
70589;BME280;58152;49.202;18.744;2022-12-18T06:56:28;99085.97;;;-8.44;61.95
70589;BME280;58152;49.202;18.744;2022-12-18T06:58:53;99096.16;;;-8.44;61.34
70589;BME280;58152;49.202;18.744;2022-12-18T07:01:20;99097.16;;;-8.42;62.37
70589;BME280;58152;49.202;18.744;2022-12-18T07:03:52;99095.09;;;-8.48;62.33
70589;BME280;58152;49.202;18.744;2022-12-18T07:06:20;99089.25;;;-8.47;62.35
70589;BME280;58152;49.202;18.744;2022-12-18T07:08:48;99097.75;;;-8.46;61.72
70589;BME280;58152;49.202;18.744;2022-12-18T07:11:14;99116.63;;;-8.42;61.61
70589;BME280;58152;49.202;18.744;2022-12-18T07:13:40;99114.44;;;-8.51;61.79
70589;BME280;58152;49.202;18.744;2022-12-18T07:16:10;99117.59;;;-8.55;61.32
70589;BME280;58152;49.202;18.744;2022-12-18T07:18:38;99130.59;;;-8.51;61.71
70589;BME280;58152;49.202;18.744;2022-12-18T07:21:08;99128.56;;;-8.56;61.47
70589;BME280;58152;49.202;18.744;2022-12-18T07:23:34;99134.69;;;-8.53;62.07
70589;BME280;58152;49.202;18.744;2022-12-18T07:26:07;99133.66;;;-8.56;61.90
70589;BME280;58152;49.202;18.744;2022-12-18T07:28:34;99142.00;;;-8.59;61.50
70589;BME280;58152;49.202;18.744;2022-12-18T07:31:11;99136.63;;;-8.63;62.44
70589;BME280;58152;49.202;18.744;2022-12-18T07:33:37;99150.69;;;-8.55;62.38
70589;BME280;58152;49.202;18.744;2022-12-18T07:36:05;99138.84;;;-8.55;63.36
70589;BME280;58152;49.202;18.744;2022-12-18T07:38:31;99147.44;;;-8.53;62.50
70589;BME280;58152;49.202;18.744;2022-12-18T07:41:07;99158.66;;;-8.49;62.55
70589;BME280;58152;49.202;18.744;2022-12-18T07:43:33;99156.03;;;-8.51;63.09
70589;BME280;58152;49.202;18.744;2022-12-18T07:45:59;99160.34;;;-8.50;63.05
70589;BME280;58152;49.202;18.744;2022-12-18T07:48:24;99156.03;;;-8.51;63.37
70589;BME280;58152;49.202;18.744;2022-12-18T07:50:53;99155.84;;;-8.54;63.51
70589;BME280;58152;49.202;18.744;2022-12-18T07:53:19;99176.41;;;-8.51;62.53
70589;BME280;58152;49.202;18.744;2022-12-18T07:55:47;99178.25;;;-8.48;62.95
70589;BME280;58152;49.202;18.744;2022-12-18T07:58:13;99169.56;;;-8.52;62.96
70589;BME280;58152;49.202;18.744;2022-12-18T08:00:38;99173.94;;;-8.49;63.37
70589;BME280;58152;49.202;18.744;2022-12-18T08:03:04;99168.94;;;-8.48;63.74
70589;BME280;58152;49.202;18.744;2022-12-18T08:05:29;99176.75;;;-8.45;63.97
70589;BME280;58152;49.202;18.744;2022-12-18T08:07:55;99163.94;;;-8.46;63.71
70589;BME280;58152;49.202;18.744;2022-12-18T08:10:22;99178.69;;;-8.40;63.82
70589;BME280;58152;49.202;18.744;2022-12-18T08:12:58;99175.47;;;-8.38;63.98
70589;BME280;58152;49.202;18.744;2022-12-18T08:15:35;99166.03;;;-8.39;64.60
70589;BME280;58152;49.202;18.744;2022-12-18T08:18:22;99177.44;;;-8.32;64.44
70589;BME280;58152;49.202;18.744;2022-12-18T08:20:47;99177.59;;;-8.29;64.79
70589;BME280;58152;49.202;18.744;2022-12-18T08:23:12;99187.28;;;-8.24;64.77
70589;BME280;58152;49.202;18.744;2022-12-18T08:25:40;99181.19;;;-8.26;64.68
70589;BME280;58152;49.202;18.744;2022-12-18T08:28:08;99181.19;;;-8.26;64.58
70589;BME280;58152;49.202;18.744;2022-12-18T08:30:33;99189.09;;;-8.21;64.14
70589;BME280;58152;49.202;18.744;2022-12-18T08:33:00;99192.78;;;-8.16;64.31
70589;BME280;58152;49.202;18.744;2022-12-18T08:35:26;99192.72;;;-8.18;64.30
70589;BME280;58152;49.202;18.744;2022-12-18T08:37:55;99198.88;;;-8.14;64.28
70589;BME280;58152;49.202;18.744;2022-12-18T08:40:21;99204.91;;;-8.12;65.42
70589;BME280;58152;49.202;18.744;2022-12-18T08:42:47;99184.88;;;-8.21;64.51
70589;BME280;58152;49.202;18.744;2022-12-18T08:45:32;99213.81;;;-8.05;64.98
70589;BME280;58152;49.202;18.744;2022-12-18T08:48:00;99208.00;;;-8.03;64.81
70589;BME280;58152;49.202;18.744;2022-12-18T08:50:29;99203.94;;;-7.99;65.52
70589;BME280;58152;49.202;18.744;2022-12-18T08:53:09;99212.72;;;-7.94;65.89
70589;BME280;58152;49.202;18.744;2022-12-18T08:55:35;99211.31;;;-7.89;65.16
70589;BME280;58152;49.202;18.744;2022-12-18T08:58:00;99216.59;;;-7.86;65.63
70589;BME280;58152;49.202;18.744;2022-12-18T09:00:26;99207.19;;;-7.87;65.15
70589;BME280;58152;49.202;18.744;2022-12-18T09:02:53;99208.53;;;-7.79;65.50
70589;BME280;58152;49.202;18.744;2022-12-18T09:05:18;99205.00;;;-7.81;65.73
70589;BME280;58152;49.202;18.744;2022-12-18T09:07:43;99209.72;;;-7.72;64.91
70589;BME280;58152;49.202;18.744;2022-12-18T09:10:12;99215.06;;;-7.68;64.93
70589;BME280;58152;49.202;18.744;2022-12-18T09:12:43;99214.13;;;-7.70;64.96
70589;BME280;58152;49.202;18.744;2022-12-18T09:15:09;99211.84;;;-7.65;65.06
70589;BME280;58152;49.202;18.744;2022-12-18T09:17:35;99210.50;;;-7.58;65.38
70589;BME280;58152;49.202;18.744;2022-12-18T09:20:01;99221.88;;;-7.52;65.45
70589;BME280;58152;49.202;18.744;2022-12-18T09:22:29;99218.56;;;-7.51;64.92
70589;BME280;58152;49.202;18.744;2022-12-18T09:24:54;99215.91;;;-7.52;65.11
70589;BME280;58152;49.202;18.744;2022-12-18T09:27:20;99218.66;;;-7.49;65.11
70589;BME280;58152;49.202;18.744;2022-12-18T09:29:47;99217.94;;;-7.47;65.72
70589;BME280;58152;49.202;18.744;2022-12-18T09:32:14;99217.47;;;-7.39;66.38
70589;BME280;58152;49.202;18.744;2022-12-18T09:34:39;99221.88;;;-7.37;65.19
70589;BME280;58152;49.202;18.744;2022-12-18T09:37:05;99219.59;;;-7.32;66.09
70589;BME280;58152;49.202;18.744;2022-12-18T09:39:30;99211.06;;;-7.33;65.92
70589;BME280;58152;49.202;18.744;2022-12-18T09:41:57;99208.66;;;-7.30;66.09
70589;BME280;58152;49.202;18.744;2022-12-18T09:44:34;99215.91;;;-7.21;65.79
70589;BME280;58152;49.202;18.744;2022-12-18T09:47:11;99212.28;;;-7.10;65.69
70589;BME280;58152;49.202;18.744;2022-12-18T09:49:44;99207.19;;;-6.94;65.32
70589;BME280;58152;49.202;18.744;2022-12-18T09:52:21;99210.59;;;-6.60;65.54
70589;BME280;58152;49.202;18.744;2022-12-18T09:54:56;99210.34;;;-6.32;65.15
70589;BME280;58152;49.202;18.744;2022-12-18T09:57:24;99204.03;;;-6.05;64.81
70589;BME280;58152;49.202;18.744;2022-12-18T10:00:02;99191.41;;;-5.84;64.64
70589;BME280;58152;49.202;18.744;2022-12-18T10:02:31;99196.00;;;-5.59;63.96
70589;BME280;58152;49.202;18.744;2022-12-18T10:05:05;99198.50;;;-5.43;64.23
70589;BME280;58152;49.202;18.744;2022-12-18T10:10:19;99197.56;;;-5.07;62.82
70589;BME280;58152;49.202;18.744;2022-12-18T10:15:57;99200.09;;;-4.70;62.03
70589;BME280;58152;49.202;18.744;2022-12-18T10:21:20;99196.22;;;-4.41;61.84
70589;BME280;58152;49.202;18.744;2022-12-18T10:24:00;99191.63;;;-4.29;62.17
70589;BME280;58152;49.202;18.744;2022-12-18T10:26:31;99186.31;;;-4.13;61.60
70589;BME280;58152;49.202;18.744;2022-12-18T10:28:57;99184.28;;;-4.00;60.61
70589;BME280;58152;49.202;18.744;2022-12-18T10:31:24;99183.97;;;-3.87;60.85
70589;BME280;58152;49.202;18.744;2022-12-18T10:33:50;99176.81;;;-3.73;59.53
70589;BME280;58152;49.202;18.744;2022-12-18T10:36:16;99167.81;;;-3.64;60.36
70589;BME280;58152;49.202;18.744;2022-12-18T10:38:41;99165.13;;;-3.44;60.42
70589;BME280;58152;49.202;18.744;2022-12-18T10:44:12;99177.84;;;-3.02;59.56
70589;BME280;58152;49.202;18.744;2022-12-18T10:46:38;99167.16;;;-2.91;58.56
70589;BME280;58152;49.202;18.744;2022-12-18T10:49:04;99150.53;;;-2.76;59.30
70589;BME280;58152;49.202;18.744;2022-12-18T10:51:36;99151.13;;;-2.61;58.43
70589;BME280;58152;49.202;18.744;2022-12-18T10:54:14;99143.56;;;-2.57;59.50
70589;BME280;58152;49.202;18.744;2022-12-18T10:56:41;99142.81;;;-2.28;59.19
70589;BME280;58152;49.202;18.744;2022-12-18T10:59:09;99134.91;;;-2.08;58.27
70589;BME280;58152;49.202;18.744;2022-12-18T11:01:54;99125.00;;;-1.97;58.12
70589;BME280;58152;49.202;18.744;2022-12-18T11:04:25;99123.09;;;-2.02;58.25
70589;BME280;58152;49.202;18.744;2022-12-18T11:09:32;99141.38;;;-1.93;58.00
70589;BME280;58152;49.202;18.744;2022-12-18T11:12:00;99128.38;;;-1.71;57.35
70589;BME280;58152;49.202;18.744;2022-12-18T11:14:34;99128.13;;;-1.51;57.11
70589;BME280;58152;49.202;18.744;2022-12-18T11:17:21;99128.81;;;-1.29;56.38
70589;BME280;58152;49.202;18.744;2022-12-18T11:19:58;99128.44;;;-1.12;56.45
70589;BME280;58152;49.202;18.744;2022-12-18T11:22:27;99135.75;;;-0.97;56.21
70589;BME280;58152;49.202;18.744;2022-12-18T11:27:26;99128.00;;;-0.67;55.94
70589;BME280;58152;49.202;18.744;2022-12-18T11:30:21;99112.94;;;-0.52;54.93
70589;BME280;58152;49.202;18.744;2022-12-18T11:38:20;99119.31;;;-0.05;54.33
70589;BME280;58152;49.202;18.744;2022-12-18T11:43:34;99132.81;;;0.20;53.82
70589;BME280;58152;49.202;18.744;2022-12-18T11:46:11;99132.19;;;0.29;53.34
70589;BME280;58152;49.202;18.744;2022-12-18T11:48:45;99125.38;;;0.32;53.09
70589;BME280;58152;49.202;18.744;2022-12-18T11:51:27;99118.63;;;0.37;53.23
70589;BME280;58152;49.202;18.744;2022-12-18T11:53:56;99115.41;;;0.47;52.56
70589;BME280;58152;49.202;18.744;2022-12-18T11:56:35;99124.31;;;0.62;52.12
70589;BME280;58152;49.202;18.744;2022-12-18T11:59:23;99130.66;;;0.74;52.18
70589;BME280;58152;49.202;18.744;2022-12-18T12:01:54;99123.00;;;0.79;52.55
70589;BME280;58152;49.202;18.744;2022-12-18T12:04:45;99137.94;;;0.94;51.87
70589;BME280;58152;49.202;18.744;2022-12-18T12:12:52;99129.03;;;1.66;51.27
70589;BME280;58152;49.202;18.744;2022-12-18T12:23:59;99146.16;;;2.08;50.16
70589;BME280;58152;49.202;18.744;2022-12-18T12:26:48;99146.25;;;2.12;49.92
70589;BME280;58152;49.202;18.744;2022-12-18T12:29:42;99150.53;;;2.12;49.92
70589;BME280;58152;49.202;18.744;2022-12-18T12:32:22;99145.31;;;2.10;50.30
70589;BME280;58152;49.202;18.744;2022-12-18T12:35:03;99148.78;;;2.11;50.44
70589;BME280;58152;49.202;18.744;2022-12-18T12:37:49;99150.53;;;2.12;49.84
70589;BME280;58152;49.202;18.744;2022-12-18T12:40:20;99136.66;;;2.07;50.00
70589;BME280;58152;49.202;18.744;2022-12-18T12:42:58;99140.06;;;2.06;50.09
70589;BME280;58152;49.202;18.744;2022-12-18T12:46:00;99149.63;;;2.10;47.90
70589;BME280;58152;49.202;18.744;2022-12-18T12:48:38;99146.88;;;1.99;49.31
70589;BME280;58152;49.202;18.744;2022-12-18T12:51:14;99138.22;;;1.98;49.51
70589;BME280;58152;49.202;18.744;2022-12-18T12:53:41;99147.75;;;2.01;50.15
70589;BME280;58152;49.202;18.744;2022-12-18T12:56:10;99146.88;;;1.99;49.83
70589;BME280;58152;49.202;18.744;2022-12-18T12:58:47;99157.25;;;2.00;49.65
70589;BME280;58152;49.202;18.744;2022-12-18T13:01:27;99157.16;;;1.96;49.68
70589;BME280;58152;49.202;18.744;2022-12-18T13:04:15;99168.38;;;1.96;48.49
70589;BME280;58152;49.202;18.744;2022-12-18T13:07:12;99154.47;;;1.90;48.22
70589;BME280;58152;49.202;18.744;2022-12-18T13:10:13;99167.34;;;1.87;47.76
70589;BME280;58152;49.202;18.744;2022-12-18T13:12:58;99173.31;;;1.83;48.28
70589;BME280;58152;49.202;18.744;2022-12-18T13:15:43;99173.22;;;1.78;49.54
70589;BME280;58152;49.202;18.744;2022-12-18T13:31:00;99185.44;;;1.84;49.57
70589;BME280;58152;49.202;18.744;2022-12-18T13:36:14;99198.66;;;1.53;49.99
70589;BME280;58152;49.202;18.744;2022-12-18T13:38:41;99187.84;;;1.31;50.06
70589;BME280;58152;49.202;18.744;2022-12-18T13:43:43;99188.63;;;1.28;50.34
70589;BME280;58152;49.202;18.744;2022-12-18T13:46:27;99180.28;;;1.00;49.49
70589;BME280;58152;49.202;18.744;2022-12-18T13:51:51;99197.78;;;0.37;51.82
70589;BME280;58152;49.202;18.744;2022-12-18T13:54:39;99187.53;;;0.05;51.08
70589;BME280;58152;49.202;18.744;2022-12-18T13:57:28;99180.84;;;-0.20;50.86
70589;BME280;58152;49.202;18.744;2022-12-18T13:59:54;99184.66;;;-0.39;52.57
70589;BME280;58152;49.202;18.744;2022-12-18T14:02:23;99180.66;;;-0.59;52.30
70589;BME280;58152;49.202;18.744;2022-12-18T14:04:50;99182.88;;;-0.71;52.61
70589;BME280;58152;49.202;18.744;2022-12-18T14:07:24;99177.97;;;-0.92;52.32
70589;BME280;58152;49.202;18.744;2022-12-18T14:09:55;99180.00;;;-1.11;53.76
70589;BME280;58152;49.202;18.744;2022-12-18T14:12:31;99175.28;;;-1.25;53.33
70589;BME280;58152;49.202;18.744;2022-12-18T14:17:55;99182.56;;;-1.39;53.85
70589;BME280;58152;49.202;18.744;2022-12-18T14:20:22;99187.53;;;-1.45;53.76
70589;BME280;58152;49.202;18.744;2022-12-18T14:22:49;99189.19;;;-1.47;54.16
70589;BME280;58152;49.202;18.744;2022-12-18T14:25:27;99186.53;;;-1.50;54.26
70589;BME280;58152;49.202;18.744;2022-12-18T14:27:59;99193.31;;;-1.52;54.18
70589;BME280;58152;49.202;18.744;2022-12-18T14:30:30;99195.81;;;-1.56;54.47
70589;BME280;58152;49.202;18.744;2022-12-18T14:33:19;99191.16;;;-1.66;54.20
70589;BME280;58152;49.202;18.744;2022-12-18T14:38:37;99212.41;;;-1.73;55.31
70589;BME280;58152;49.202;18.744;2022-12-18T14:43:35;99214.72;;;-1.81;54.75
70589;BME280;58152;49.202;18.744;2022-12-18T14:46:01;99209.31;;;-1.88;54.71
70589;BME280;58152;49.202;18.744;2022-12-18T14:48:39;99188.25;;;-2.02;55.01